Saturday, February 13, 2016
15:22 UTC
  |  Log In   |  Register Free
Airport Search:

Southwest Georgia Regional Airport
(KABY)

FAA data valid effective Feb 4 2016 - Mar 31 2016 (unless otherwise noted).

 
 
 
 
 
 
 
 
 
 
 
 
 
 
Current Aviation Weather for KABY

Weather Summary


The most recent METAR observation for ABY was updated at: 12:53 UTC
METAR for KABY is not available. Closest METAR is for KCXU
KABY  (most recent observation was updatred at 13:14 UTC)
131453Z 36013G17KT 10SM CLR 08/M09 A3039 RMK AO2 SLP291 T00781094 51025

KCXU  (19.5 nm NE)   (most recent observation was updated at 13:15 UTC)
131500Z AUTO 36005KT 10SM CLR 09/M07 A3038 RMK AO2 T00861074

KMGR  (33.7 nm NW)   (most recent observation was updated at 13:14 UTC)
131455Z AUTO 34007G10KT 10SM CLR 08/M05 A3036 RMK AO2

TAF for KABY is not available.
KABY
131120Z 1312/1412 35010KT P6SM SKC TEMPO 1312/1316 35013G23KT FM132300 01003KT P6SM SKC

GlobalAir.com is loading additional information.
 Current Weather at ABY
44.0 F° (6.7 C°)

North winds at 11.5 mph
Pressure:
30.38 in
Humidity:
38%
Wind:
North at 11.5 mph
Dew Point:
19.9 F° (-6.7 C°)
Visibility:
10.00 mi
ABY NOAA Radar




Find All Airport Services Find A Hotel Find A Rental Car Find A Golf Course Find A Restaurant $100 Hamburger



Airport Weather Forecast for KABY

Translated METAR for KABY (1453 UTC)
METAR:
KABY 131453Z 36013G17KT 10SM CLR 08/M09 A3039 RMK AO2 SLP291 T00781094 51025
Conditions at:
KABY (Southwest Georgia Rgnl, GA) observed 1453 UTC 13 February 2016
Temperature:
8°C (46.4°F)
Dewpoint:
-9°C (15.8°F) [RH = 29]
Pressure:
30.39 inches Hg (1029.1 mb)
pressure at sea level is 291 in Hg
Winds:
from the N (360 degrees) at 15 mph (13 knots: 6.7 m/s)
gusting to 19.6 mph (17 knots: 8.7 m/s)
Visibility:
10 mile(s)
Ceiling:
at least 12,000 feet AGL
Clouds:
Clear below 12,000 feet AGL
Remarks:
site is automated and HAS a precipitation sensor

Translated TAF for KABY (Southwest Georgia Rgnl, GA) (1120 UTC)
TAF text:
KABY 131120Z 1312/1412 35010KT P6SM SKC
Forecast period:
Saturday Feb 13 2016 12:00 UTC - Sunday Feb 14 2016 12:00 UTC
Forecast type:
FROM: standard forecast or significant change
Winds:
from the N (350 degrees) at 11.5 mph (10 knots: 5.1 m/s)
Visibility:
6 or more mile(s) (9.7+ km)
Ceiling:
at least 12,000 feet AGL
Clouds:
Clear Skies
Weather:
no significant weather observed at this time
TAF text:
1312/1316 35013G23KT
Forecast period:
Sunday Feb 14 2016 12:00 UTC - Sunday Feb 14 2016 16:00 UTC
Forecast type:
FROM: standard forecast or significant change
Winds:
from the N (350 degrees) at 15 mph (13 knots: 6.7 m/s)
gusting to 26.5 mph (23 knots: 11.8 m/s)
Visibility:
Ceiling:
Clouds:
Weather:
no significant weather observed at this time
TAF text:
FM132300 01003KT P6SM SKC
Forecast period:
Saturday Feb 13 2016 23:00 UTC - Sunday Feb 14 2016 12:00 UTC
Forecast type:
FROM: standard forecast or significant change
Winds:
from the N (010 degrees) at 3.5 mph (3 knots: 1.5 m/s)
Visibility:
6 or more mile(s) (9.7+ km)
Ceiling:
at least 12,000 feet AGL
Clouds:
Clear Skies
Weather:
no significant weather observed at this time
FBO's on the Field
FBO Company Facility Photos Services Transportation Aviation Fuel Prices: Prices include tax
Catering Weather Repair Courtesy Rental Type 100LL JetA JetA+ MOGAS 8087
 
Eagles of America, Inc. - ABY

Currently rated 5 by 1 person
FS:Epic
Last Updated: Jan-18
Login to update fuel prices
SS:
Contact Eagles of America, Inc. - ABYMore FBO Information
 
Add another FBO Facility Photos Catering Weather Repair Courtesy Rental Type 100LL JetA JetA+ MOGAS 8087
Services Transportation Aviation Fuel Prices: Prices include tax


model-print
model-print
model-print
model-print